Terminal Aerodrome Forecast
Issued by NWS Shreveport, LA

Home | Current Version | Previous Version | Text Only | Print | Product List | Glossary On
Versions: 1 2 3 4 5 6 7 8 9 10 11 12 13 14 15 16 17 18
000
FTUS44 KSHV 012300
TAFLFK
TAF
KLFK 012334Z 0200/0224 32012G18KT P6SM BKN035 OVC040
     FM020300 33012G18KT P6SM SKC
     FM020800 33012G18KT P6SM BKN120
     FM021400 36010KT P6SM SKC
     FM022000 36005KT P6SM SKC=

USA.gov is the U.S. government's official web portal to all federal, state and local government web resources and services.